Time;durP1;ratioP1;P1;durP2;ratioP2;P2;SDS_P1;SDS_P2;PMS_P1;PMS_P2;Temp;Humidity;BMP_temperature;BMP_pressure;BME280_temperature;BME280_humidity;BME280_pressure;Samples;Min_cycle;Max_cycle;Signal;HPM_P1;HPM_P2
2023/10/07 00:02:13;;;;;;;6.90;3.87;;;;;;;10.55;57.56;96422.13;6180552;23;20530;-82
2023/10/07 00:04:44;;;;;;;8.50;4.20;;;;;;;10.54;57.47;96422.25;6155483;23;20208;-82
2023/10/07 00:07:10;;;;;;;7.03;4.47;;;;;;;10.49;57.56;96420.84;6156428;23;20602;-81
2023/10/07 00:09:49;;;;;;;9.23;4.40;;;;;;;10.43;57.59;96426.56;6155272;23;20532;-82
2023/10/07 00:12:16;;;;;;;10.77;4.80;;;;;;;10.40;57.72;96420.78;6180535;23;20493;-82
2023/10/07 00:14:42;;;;;;;8.80;4.63;;;;;;;10.40;57.41;96424.19;6155193;23;20619;-82
2023/10/07 00:17:16;;;;;;;7.43;3.73;;;;;;;10.41;57.31;96425.03;6155879;23;20190;-82
2023/10/07 00:19:46;;;;;;;6.50;3.63;;;;;;;10.40;58.19;96420.78;6157723;23;20142;-82
2023/10/07 00:22:14;;;;;;;10.27;4.57;;;;;;;10.33;57.88;96423.03;6181150;23;20301;-83
2023/10/07 00:24:43;;;;;;;8.20;4.70;;;;;;;10.33;57.25;96415.25;6182079;23;20155;-81
2023/10/07 00:27:26;;;;;;;8.07;4.13;;;;;;;10.41;56.73;96415.47;6180624;23;20182;-81
2023/10/07 00:29:54;;;;;;;11.43;4.80;;;;;;;10.53;56.38;96402.44;6180835;23;20606;-82
2023/10/07 00:32:28;;;;;;;8.90;4.27;;;;;;;10.61;56.18;96410.44;6180849;23;20166;-81
2023/10/07 00:34:55;;;;;;;11.03;4.17;;;;;;;10.65;55.85;96398.81;6180829;23;20178;-81
2023/10/07 00:37:21;;;;;;;8.60;4.27;;;;;;;10.66;56.12;96403.06;6180183;23;20221;-81
2023/10/07 00:39:46;;;;;;;5.37;3.70;;;;;;;10.71;56.03;96403.50;6180618;23;20162;-82
2023/10/07 00:42:12;;;;;;;9.60;4.47;;;;;;;10.77;55.93;96400.38;6155625;23;20162;-82
2023/10/07 00:44:37;;;;;;;8.73;4.60;;;;;;;11.03;55.04;96396.44;6179896;23;20162;-82
2023/10/07 00:52:28;;;;;;;11.23;4.70;;;;;;;11.28;54.36;96384.78;6181160;23;20214;-81
2023/10/07 00:54:59;;;;;;;10.07;4.47;;;;;;;11.34;54.12;96379.06;6157609;23;20151;-81
2023/10/07 00:59:57;;;;;;;10.53;4.97;;;;;;;11.31;54.30;96375.91;6181426;23;20643;-82
2023/10/07 01:02:30;;;;;;;9.23;4.50;;;;;;;11.27;54.56;96372.72;6182139;23;20598;-82
2023/10/07 01:05:06;;;;;;;5.90;3.70;;;;;;;11.28;54.94;96379.56;6180118;23;20748;-83
2023/10/07 01:07:34;;;;;;;8.03;4.17;;;;;;;11.18;54.85;96370.91;6156702;23;20165;-82
2023/10/07 01:12:39;;;;;;;9.40;4.07;;;;;;;11.01;54.82;96367.16;6204120;23;20151;-82
2023/10/07 01:15:11;;;;;;;8.97;4.30;;;;;;;11.03;55.00;96360.03;6157108;23;20147;-82
2023/10/07 01:17:40;;;;;;;8.10;4.03;;;;;;;11.05;55.16;96363.34;6180773;23;20177;-82
2023/10/07 01:20:08;;;;;;;8.93;4.67;;;;;;;11.02;55.19;96355.78;6156963;23;20618;-82
2023/10/07 01:22:36;;;;;;;8.70;4.37;;;;;;;10.92;55.60;96356.72;6205073;23;20607;-82
2023/10/07 01:25:09;;;;;;;6.97;3.97;;;;;;;10.84;55.94;96359.13;6156092;23;20190;-83
2023/10/07 01:27:42;;;;;;;8.57;4.43;;;;;;;10.87;55.57;96353.69;6204429;23;20127;-82
2023/10/07 01:32:34;;;;;;;8.03;4.03;;;;;;;10.84;55.29;96344.38;6182052;23;20277;-82
2023/10/07 01:35:05;;;;;;;8.43;4.03;;;;;;;10.85;54.98;96340.00;6180102;23;20178;-82
2023/10/07 01:37:41;;;;;;;8.77;4.10;;;;;;;10.82;54.76;96348.88;6180638;23;20638;-82
2023/10/07 01:40:12;;;;;;;8.27;4.27;;;;;;;10.81;54.51;96347.22;6180870;23;20170;-82
2023/10/07 01:42:37;;;;;;;8.27;3.87;;;;;;;10.80;53.73;96353.38;6180725;23;20534;-82
2023/10/07 01:45:22;;;;;;;8.57;4.00;;;;;;;10.78;54.05;96355.28;6155006;23;20166;-83
2023/10/07 01:47:55;;;;;;;6.97;3.80;;;;;;;10.71;54.73;96348.97;6180824;23;20151;-81
2023/10/07 01:50:21;;;;;;;7.30;4.13;;;;;;;10.60;55.35;96356.81;6180862;23;20202;-80
2023/10/07 01:52:48;;;;;;;7.03;4.20;;;;;;;10.52;55.61;96354.88;6155863;23;20163;-81
2023/10/07 01:55:15;;;;;;;6.37;3.60;;;;;;;10.47;56.03;96355.25;6180724;23;20178;-81
2023/10/07 01:57:41;;;;;;;7.83;3.90;;;;;;;10.49;55.98;96355.94;6155616;23;20178;-82
2023/10/07 02:00:11;;;;;;;7.83;4.20;;;;;;;10.40;55.91;96354.09;6180961;23;20614;-81
2023/10/07 02:02:49;;;;;;;7.83;3.60;;;;;;;10.38;55.83;96360.38;6180933;23;20195;-82
2023/10/07 02:05:15;;;;;;;7.13;3.80;;;;;;;10.40;55.64;96348.91;6185045;23;20166;-83
2023/10/07 02:07:43;;;;;;;7.27;4.00;;;;;;;10.46;55.56;96352.78;6184450;23;20162;-83
2023/10/07 02:10:12;;;;;;;8.03;4.20;;;;;;;10.43;55.96;96351.25;6185024;23;20764;-82
2023/10/07 02:12:38;;;;;;;7.33;3.83;;;;;;;10.58;55.32;96348.31;6183245;23;20534;-81
2023/10/07 02:15:10;;;;;;;8.93;3.93;;;;;;;10.53;55.80;96359.13;6158398;23;20163;-82
2023/10/07 02:17:35;;;;;;;9.57;4.17;;;;;;;10.50;55.72;96357.56;6207344;23;20174;-82
2023/10/07 02:20:22;;;;;;;7.03;3.97;;;;;;;10.47;55.52;96357.03;6183461;23;20498;-82
2023/10/07 02:22:47;;;;;;;8.33;3.97;;;;;;;10.46;55.96;96360.56;6182998;23;20162;-83
2023/10/07 02:25:20;;;;;;;7.20;4.10;;;;;;;10.45;55.96;96364.94;6182713;23;20284;-82
2023/10/07 02:27:48;;;;;;;8.53;4.17;;;;;;;10.44;55.84;96370.25;6184199;23;20186;-82
2023/10/07 02:30:19;;;;;;;6.57;3.53;;;;;;;10.43;55.97;96369.44;6158428;23;20162;-82
2023/10/07 02:32:46;;;;;;;12.27;5.10;;;;;;;10.48;56.04;96375.06;6182798;23;20221;-82
2023/10/07 02:35:17;;;;;;;11.40;4.83;;;;;;;10.65;56.96;96371.06;6182948;23;20162;-81
2023/10/07 02:37:49;;;;;;;7.17;3.97;;;;;;;10.82;56.78;96367.06;6183722;23;20186;-81
2023/10/07 02:40:35;;;;;;;6.53;3.60;;;;;;;10.89;56.80;96360.41;6159041;23;20155;-82
2023/10/07 02:43:06;;;;;;;8.27;4.10;;;;;;;11.20;56.95;96362.97;6181804;23;20158;-83
2023/10/07 02:45:32;;;;;;;10.67;3.97;;;;;;;11.29;56.83;96367.38;6158218;23;20237;-82
2023/10/07 02:48:01;;;;;;;7.90;4.20;;;;;;;11.34;57.03;96373.03;6157800;23;20245;-81
2023/10/07 02:50:26;;;;;;;9.93;4.60;;;;;;;11.47;57.01;96378.81;6158302;23;20174;-81
2023/10/07 02:52:51;;;;;;;10.27;4.53;;;;;;;11.50;57.24;96373.34;6181944;23;20246;-82
2023/10/07 02:57:45;;;;;;;6.13;3.67;;;;;;;11.62;56.67;96367.06;6183884;23;20185;-82
2023/10/07 03:00:16;;;;;;;9.63;4.50;;;;;;;11.62;56.87;96372.28;6181554;23;20477;-82
2023/10/07 03:02:49;;;;;;;8.07;4.30;;;;;;;11.63;56.84;96370.50;6183135;23;20151;-82
2023/10/07 03:05:14;;;;;;;9.37;4.70;;;;;;;11.72;56.64;96368.88;6181755;23;20175;-82
2023/10/07 03:08:01;;;;;;;6.30;3.60;;;;;;;11.76;56.38;96371.09;6183673;23;20231;-82
2023/10/07 03:10:43;;;;;;;11.10;4.80;;;;;;;11.76;56.47;96372.88;6180572;23;20510;-82
2023/10/07 03:13:08;;;;;;;7.83;4.47;;;;;;;11.77;56.30;96353.69;6181445;23;20195;-82
2023/10/07 03:17:59;;;;;;;10.57;4.73;;;;;;;11.89;56.46;96368.25;6182432;23;20175;-81
2023/10/07 03:26:05;;;;;;;8.43;4.80;;;;;;;12.15;56.12;96352.91;6203592;23;20232;-81
2023/10/07 03:28:36;;;;;;;8.37;4.50;;;;;;;12.16;56.01;96355.38;6162298;23;20158;-83
2023/10/07 03:31:08;;;;;;;11.90;4.37;;;;;;;12.15;56.21;96356.34;6181527;23;20204;-82
2023/10/07 03:33:50;;;;;;;9.93;4.60;;;;;;;12.25;55.98;96360.72;6181019;23;20151;-82
2023/10/07 03:41:35;;;;;;;7.70;3.73;;;;;;;12.05;56.65;96380.72;6202642;23;20150;-83
2023/10/07 03:44:02;;;;;;;7.63;4.23;;;;;;;12.00;57.15;96375.91;6181154;23;20166;-83
2023/10/07 03:46:27;;;;;;;9.43;4.80;;;;;;;12.04;57.17;96381.69;6206652;23;20240;-81
2023/10/07 03:48:56;;;;;;;8.53;4.47;;;;;;;12.04;57.46;96382.50;6182265;23;20154;-81
2023/10/07 03:51:22;;;;;;;11.23;4.87;;;;;;;12.04;57.40;96386.91;6181736;23;20209;-81
2023/10/07 03:53:49;;;;;;;9.60;4.70;;;;;;;12.04;57.63;96386.91;6180640;23;20154;-82
2023/10/07 03:56:15;;;;;;;8.97;4.33;;;;;;;11.99;57.88;96391.66;6156599;23;20229;-81
2023/10/07 03:58:44;;;;;;;8.77;4.67;;;;;;;11.87;58.49;96389.19;6181256;23;20151;-81
2023/10/07 04:01:22;;;;;;;9.10;4.90;;;;;;;11.90;58.58;96385.50;6182183;23;20190;-82
2023/10/07 04:03:50;;;;;;;7.77;4.37;;;;;;;11.84;58.76;96383.47;6182131;23;20149;-82
2023/10/07 04:06:17;;;;;;;12.20;5.20;;;;;;;11.82;58.86;96383.56;6157880;23;20174;-82
2023/10/07 04:08:52;;;;;;;11.37;4.23;;;;;;;11.81;59.04;96383.72;6156397;23;20167;-82
2023/10/07 04:11:19;;;;;;;7.50;4.57;;;;;;;11.75;59.43;96376.41;6158251;23;20150;-82
2023/10/07 04:13:46;;;;;;;9.80;4.50;;;;;;;11.76;59.70;96381.50;6206262;23;20599;-82
2023/10/07 04:16:24;;;;;;;11.07;4.53;;;;;;;11.77;59.96;96374.50;6206887;23;20178;-82
2023/10/07 04:18:50;;;;;;;10.07;4.43;;;;;;;11.70;59.76;96366.41;6181972;23;20142;-83
2023/10/07 04:21:16;;;;;;;8.77;4.57;;;;;;;11.64;60.75;96365.16;6181398;23;20185;-83
2023/10/07 04:23:45;;;;;;;8.47;4.83;;;;;;;11.63;60.57;96352.28;6180467;23;20646;-81
2023/10/07 04:26:19;;;;;;;12.03;4.93;;;;;;;11.57;60.87;96356.25;6157355;23;20178;-83
2023/10/07 04:28:44;;;;;;;9.00;4.53;;;;;;;11.50;60.89;96357.75;6204952;23;20149;-83
2023/10/07 04:31:10;;;;;;;9.27;4.57;;;;;;;11.46;61.18;96360.72;6181033;23;20487;-83
2023/10/07 04:33:41;;;;;;;8.80;4.20;;;;;;;11.34;61.47;96370.44;6157876;23;20158;-80
2023/10/07 04:36:11;;;;;;;9.53;4.93;;;;;;;11.29;62.17;96368.22;6228156;23;20154;-80
2023/10/07 04:41:36;;;;;;;10.07;4.70;;;;;;;11.03;64.13;96367.84;6132212;23;20170;-81
2023/10/07 04:46:55;;;;;;;10.17;5.23;;;;;;;10.92;64.19;96393.09;6150992;23;20175;-82
2023/10/07 04:49:23;;;;;;;9.50;4.53;;;;;;;10.71;65.13;96395.72;6128382;23;20128;-81
2023/10/07 04:51:54;;;;;;;10.87;5.60;;;;;;;10.61;65.34;96400.84;6102492;23;20151;-81
2023/10/07 04:54:20;;;;;;;8.40;4.47;;;;;;;10.46;65.23;96402.94;6103005;23;20147;-82
2023/10/07 04:56:53;;;;;;;7.53;4.33;;;;;;;10.34;65.53;96409.16;6126224;23;20184;-81
2023/10/07 04:59:18;;;;;;;10.17;4.73;;;;;;;10.22;66.21;96404.94;6127751;23;20144;-82
2023/10/07 05:01:48;;;;;;;9.03;4.47;;;;;;;10.14;66.42;96412.47;6126236;23;20191;-80
2023/10/07 05:04:15;;;;;;;6.57;4.43;;;;;;;10.06;67.44;96412.28;6126607;23;20159;-82
2023/10/07 05:06:43;;;;;;;8.37;4.40;;;;;;;9.97;68.10;96418.19;6102274;23;20188;-82
2023/10/07 05:09:18;;;;;;;11.13;4.73;;;;;;;9.89;67.68;96413.63;6125332;23;20182;-82
2023/10/07 05:11:45;;;;;;;8.90;5.00;;;;;;;9.82;68.20;96413.31;6126406;23;20466;-82
2023/10/07 05:14:11;;;;;;;9.77;4.47;;;;;;;9.79;67.90;96413.53;6124616;23;20144;-82
2023/10/07 05:16:37;;;;;;;9.27;4.30;;;;;;;9.82;67.40;96418.50;6130598;23;20224;-81
2023/10/07 05:19:04;;;;;;;7.83;4.47;;;;;;;9.78;67.60;96421.44;6197697;23;20160;-82
2023/10/07 05:21:31;;;;;;;11.47;4.90;;;;;;;9.73;68.29;96418.41;6183818;23;20166;-80
2023/10/07 05:24:01;;;;;;;8.03;4.47;;;;;;;9.80;67.47;96422.13;6185747;23;20201;-80
2023/10/07 05:26:27;;;;;;;9.07;4.73;;;;;;;9.70;68.33;96418.63;6182021;23;20211;-80
2023/10/07 05:28:52;;;;;;;11.10;4.57;;;;;;;9.73;68.21;96414.03;6181853;23;20165;-81
2023/10/07 05:31:17;;;;;;;8.53;4.97;;;;;;;9.64;68.86;96418.16;6181387;23;20216;-80
2023/10/07 05:33:44;;;;;;;8.63;4.23;;;;;;;9.62;69.18;96416.63;6156114;23;20167;-80
2023/10/07 05:36:14;;;;;;;7.60;4.90;;;;;;;9.59;69.19;96417.69;6156436;23;20174;-79
2023/10/07 05:38:44;;;;;;;8.83;4.47;;;;;;;9.56;69.59;96411.94;6181450;23;20136;-80
2023/10/07 05:41:14;;;;;;;13.23;4.97;;;;;;;9.55;69.51;96407.69;6184305;23;20602;-78
2023/10/07 05:43:43;;;;;;;10.10;4.77;;;;;;;9.59;69.51;96403.91;6195104;23;20153;-79
2023/10/07 05:46:10;;;;;;;10.07;5.40;;;;;;;9.65;69.54;96390.47;6207782;23;20174;-78
2023/10/07 05:48:38;;;;;;;9.07;5.13;;;;;;;9.78;69.31;96385.94;6182916;23;20205;-80
2023/10/07 05:51:07;;;;;;;8.97;4.60;;;;;;;9.89;68.71;96395.44;6157949;23;20166;-80
2023/10/07 05:53:36;;;;;;;9.67;5.17;;;;;;;10.00;68.84;96408.41;6206307;23;20230;-80
2023/10/07 05:56:05;;;;;;;9.50;4.90;;;;;;;10.10;68.79;96405.91;6159041;23;20257;-80
2023/10/07 05:58:32;;;;;;;10.13;4.63;;;;;;;10.22;68.37;96404.94;6182722;23;20182;-79
2023/10/07 06:00:58;;;;;;;10.93;4.87;;;;;;;10.32;68.04;96403.22;6182786;23;20209;-79
2023/10/07 06:03:25;;;;;;;9.30;4.30;;;;;;;10.41;67.96;96409.44;6156936;23;20162;-79
2023/10/07 06:05:50;;;;;;;9.33;4.60;;;;;;;10.49;67.89;96410.47;6158148;23;20182;-80
2023/10/07 06:08:16;;;;;;;8.17;4.73;;;;;;;10.54;67.29;96407.50;6182445;23;20495;-80
2023/10/07 06:10:44;;;;;;;8.57;5.00;;;;;;;10.66;67.22;96413.44;6157740;23;20173;-78
2023/10/07 06:13:09;;;;;;;10.63;4.70;;;;;;;10.70;66.78;96410.50;6157709;23;20540;-79
2023/10/07 06:15:37;;;;;;;7.90;4.03;;;;;;;10.72;66.96;96410.34;6157285;23;20228;-79
2023/10/07 06:18:05;;;;;;;8.03;4.70;;;;;;;10.69;66.77;96397.59;6207209;23;20178;-80
2023/10/07 06:20:37;;;;;;;10.50;4.43;;;;;;;10.81;66.55;96391.41;6182186;23;20162;-80
2023/10/07 06:23:16;;;;;;;8.20;4.73;;;;;;;10.90;66.69;96411.41;6205726;23;20178;-78
2023/10/07 06:25:48;;;;;;;8.70;4.10;;;;;;;11.06;66.22;96405.75;6183432;23;20225;-78
2023/10/07 06:28:44;;;;;;;8.67;4.67;;;;;;;11.23;65.92;96406.94;6206178;23;20146;-78
2023/10/07 06:31:10;;;;;;;7.70;3.83;;;;;;;11.34;64.88;96409.44;6203478;23;20167;-78
2023/10/07 06:33:40;;;;;;;9.27;4.30;;;;;;;11.47;64.70;96409.19;6181326;23;20147;-78
2023/10/07 06:36:07;;;;;;;8.40;4.30;;;;;;;11.53;64.69;96413.88;6182005;23;20273;-80
2023/10/07 06:38:33;;;;;;;10.30;4.23;;;;;;;11.54;64.07;96415.53;6156943;23;20212;-79
2023/10/07 06:40:59;;;;;;;7.57;4.73;;;;;;;11.67;63.84;96425.72;6156889;23;20253;-78
2023/10/07 06:43:25;;;;;;;11.90;4.20;;;;;;;11.68;63.45;96442.97;6181482;23;20159;-78
2023/10/07 06:45:54;;;;;;;8.40;4.57;;;;;;;11.78;63.23;96443.81;6184843;23;20178;-78
2023/10/07 06:48:27;;;;;;;13.27;4.87;;;;;;;11.77;63.74;96452.56;6158862;23;20170;-78
2023/10/07 06:50:53;;;;;;;9.03;4.57;;;;;;;11.78;62.74;96454.22;6207477;23;20205;-78
2023/10/07 06:53:22;;;;;;;9.43;4.97;;;;;;;11.79;63.93;96446.28;6182506;23;20162;-79
2023/10/07 06:55:49;;;;;;;9.83;4.43;;;;;;;11.69;65.01;96450.63;6207483;23;20181;-78
2023/10/07 06:58:14;;;;;;;8.30;4.57;;;;;;;11.61;65.84;96456.47;6182597;23;20183;-78
2023/10/07 07:01:35;;;;;;;9.07;4.03;;;;;;;11.58;65.44;96455.94;6182167;23;20197;-79
2023/10/07 07:03:31;;;;;;;9.60;4.47;;;;;;;11.60;64.65;96449.63;6190191;23;20162;-79
2023/10/07 07:05:57;;;;;;;8.20;4.27;;;;;;;11.72;63.87;96460.75;6183929;23;20174;-79
2023/10/07 07:08:26;;;;;;;7.13;4.03;;;;;;;11.89;63.26;96461.94;6158751;23;20158;-80
2023/10/07 07:10:55;;;;;;;10.80;4.90;;;;;;;12.06;63.24;96463.91;6182470;23;20216;-80
2023/10/07 07:13:26;;;;;;;9.47;4.83;;;;;;;12.31;62.94;96456.53;6176506;23;20206;-80
2023/10/07 07:15:57;;;;;;;10.27;4.23;;;;;;;12.56;62.82;96452.56;6155010;23;20194;-79
2023/10/07 07:18:25;;;;;;;8.60;4.07;;;;;;;12.80;62.34;96457.34;6179044;23;20245;-80
2023/10/07 07:23:25;;;;;;;8.07;4.10;;;;;;;13.24;61.33;96456.72;6177695;23;20546;-78
2023/10/07 07:28:30;;;;;;;9.67;4.47;;;;;;;13.71;60.20;96467.16;6203225;23;20143;-79
2023/10/07 07:30:59;;;;;;;7.07;3.60;;;;;;;13.88;59.43;96466.38;6205076;23;20181;-78
2023/10/07 07:33:35;;;;;;;8.90;4.37;;;;;;;14.01;59.08;96458.19;6158798;23;20548;-80
2023/10/07 07:36:18;;;;;;;7.00;4.53;;;;;;;14.07;57.91;96464.63;6206019;23;20174;-80
2023/10/07 07:38:44;;;;;;;7.57;3.93;;;;;;;14.18;57.04;96464.41;6185009;23;20139;-79
2023/10/07 07:41:10;;;;;;;6.13;3.60;;;;;;;14.61;56.89;96476.78;6184212;23;20147;-80
2023/10/07 07:43:37;;;;;;;8.57;3.93;;;;;;;14.77;56.09;96472.66;6183291;23;20228;-79
2023/10/07 07:46:17;;;;;;;5.37;3.27;;;;;;;14.81;55.37;96468.78;6182319;23;20190;-79
2023/10/07 07:48:50;;;;;;;6.87;3.40;;;;;;;15.04;54.87;96469.13;6181714;23;20149;-79
2023/10/07 07:51:17;;;;;;;8.67;3.93;;;;;;;15.25;54.49;96467.78;6182315;23;20575;-79
2023/10/07 07:53:43;;;;;;;7.33;3.70;;;;;;;15.33;53.96;96474.88;6181911;23;20216;-78
2023/10/07 07:56:12;;;;;;;8.13;3.60;;;;;;;15.29;53.46;96474.38;6182516;23;20237;-78
2023/10/07 07:58:37;;;;;;;6.38;3.58;;;;;;;15.10;52.85;96469.31;6182062;23;20182;-79
2023/10/07 08:01:06;;;;;;;5.60;3.23;;;;;;;15.51;52.39;96472.19;6156972;23;20162;-79
2023/10/07 08:03:38;;;;;;;7.23;3.63;;;;;;;15.32;52.32;96467.16;6206670;23;20151;-79
2023/10/07 08:06:04;;;;;;;5.43;3.10;;;;;;;15.59;52.39;96462.56;6157761;23;20178;-79
2023/10/07 08:08:36;;;;;;;6.18;3.10;;;;;;;15.71;52.09;96470.19;6209067;23;20151;-79
2023/10/07 08:11:02;;;;;;;8.40;3.17;;;;;;;15.69;51.61;96472.16;6159962;23;20149;-80
2023/10/07 08:13:27;;;;;;;7.53;3.20;;;;;;;15.78;51.54;96484.28;6156790;23;20254;-78
2023/10/07 08:15:56;;;;;;;8.75;4.18;;;;;;;15.81;50.94;96489.22;6157905;23;20178;-77
2023/10/07 08:18:30;;;;;;;8.90;4.78;;;;;;;15.87;50.90;96483.34;6207459;23;20257;-78
2023/10/07 08:21:13;;;;;;;21.63;5.28;;;;;;;15.94;51.38;96487.00;6159054;23;20146;-78
2023/10/07 08:23:40;;;;;;;11.73;4.70;;;;;;;16.03;50.58;96490.47;6159935;23;20143;-79
2023/10/07 08:26:09;;;;;;;7.32;4.50;;;;;;;16.09;50.74;96493.28;6182373;23;20178;-79
2023/10/07 08:28:42;;;;;;;5.53;2.90;;;;;;;15.96;51.18;96498.13;6181587;23;20177;-78
2023/10/07 08:31:17;;;;;;;7.05;3.38;;;;;;;16.13;51.04;96494.59;6184098;23;20139;-79
2023/10/07 08:33:48;;;;;;;6.72;3.53;;;;;;;15.94;50.91;96492.22;6181953;23;20220;-79
2023/10/07 08:36:14;;;;;;;8.32;2.80;;;;;;;15.98;50.94;96496.16;6205603;23;20184;-79
2023/10/07 08:38:50;;;;;;;6.15;3.00;;;;;;;16.28;50.62;96496.59;6157628;23;20262;-78
2023/10/07 08:41:18;;;;;;;5.63;2.90;;;;;;;16.40;51.23;96490.88;6183894;23;20142;-79
2023/10/07 08:43:45;;;;;;;9.77;3.17;;;;;;;16.51;50.96;96495.00;6159602;23;20158;-79
2023/10/07 08:46:19;;;;;;;5.40;2.70;;;;;;;16.77;50.26;96497.53;6207476;23;20170;-79
2023/10/07 08:48:50;;;;;;;6.78;3.60;;;;;;;16.80;49.98;96501.66;6182314;23;20150;-80
2023/10/07 08:51:25;;;;;;;5.90;3.25;;;;;;;17.04;49.93;96492.94;6207177;23;20157;-79
2023/10/07 08:54:04;;;;;;;5.38;2.88;;;;;;;17.10;49.38;96502.78;6182040;23;20139;-79
2023/10/07 08:56:30;;;;;;;5.80;3.17;;;;;;;17.19;49.55;96502.63;6182163;23;20565;-79
2023/10/07 08:58:57;;;;;;;6.97;3.00;;;;;;;17.24;49.42;96507.38;6207281;23;20154;-79
2023/10/07 09:01:24;;;;;;;5.85;2.97;;;;;;;17.24;49.81;96500.31;6182092;23;20185;-79
2023/10/07 09:03:50;;;;;;;4.85;2.83;;;;;;;17.26;49.23;96497.53;6181841;23;20162;-78
2023/10/07 09:06:16;;;;;;;9.02;3.50;;;;;;;17.04;49.89;96501.63;6207358;23;20759;-78
2023/10/07 09:08:43;;;;;;;5.28;2.80;;;;;;;17.13;49.89;96505.88;6158290;23;20162;-79
2023/10/07 09:11:13;;;;;;;7.00;3.20;;;;;;;16.92;49.29;96502.94;6157758;23;20190;-79
2023/10/07 09:13:39;;;;;;;5.03;3.03;;;;;;;16.99;49.97;96510.00;6181308;23;20162;-79
2023/10/07 09:16:07;;;;;;;6.57;3.63;;;;;;;16.93;48.98;96515.91;6182200;23;20257;-79
2023/10/07 09:18:37;;;;;;;5.32;2.63;;;;;;;17.14;48.94;96510.19;6207947;23;20171;-78
2023/10/07 09:21:09;;;;;;;6.97;3.05;;;;;;;17.14;49.44;96511.97;6160073;23;20557;-79
2023/10/07 09:23:43;;;;;;;6.65;3.25;;;;;;;17.04;49.83;96513.94;6184771;23;20166;-79
2023/10/07 09:26:22;;;;;;;7.45;3.03;;;;;;;16.97;49.40;96527.72;6183754;23;20173;-79
2023/10/07 09:29:00;;;;;;;5.47;3.30;;;;;;;17.07;49.54;96524.94;6206862;23;20139;-79
2023/10/07 09:31:30;;;;;;;5.93;2.95;;;;;;;16.74;49.63;96529.34;6183712;23;20165;-78
2023/10/07 09:34:02;;;;;;;5.55;3.15;;;;;;;16.78;49.30;96519.31;6182955;23;20158;-79
2023/10/07 09:41:37;;;;;;;9.93;4.25;;;;;;;17.17;50.41;96514.28;6184460;23;20567;-80
2023/10/07 09:44:03;;;;;;;7.47;3.80;;;;;;;17.25;50.12;96522.97;6207983;23;20161;-77
2023/10/07 09:46:29;;;;;;;9.57;3.08;;;;;;;17.39;49.72;96523.25;6183852;23;20189;-78
2023/10/07 09:48:57;;;;;;;8.68;3.70;;;;;;;17.74;48.91;96522.06;6184252;23;20155;-79
2023/10/07 09:51:24;;;;;;;8.82;3.70;;;;;;;17.99;48.39;96534.16;6184101;23;20515;-80
2023/10/07 09:54:27;;;;;;;7.55;3.75;;;;;;;18.05;47.93;96524.78;6183196;23;20158;-80
2023/10/07 09:57:19;;;;;;;5.35;3.33;;;;;;;18.45;46.53;96525.56;6208819;23;20249;-79
2023/10/07 09:59:57;;;;;;;9.68;3.83;;;;;;;18.58;46.42;96541.63;6184035;23;20178;-79
2023/10/07 10:02:44;;;;;;;6.55;3.10;;;;;;;18.70;46.81;96540.25;6183854;23;20162;-79
2023/10/07 10:05:35;;;;;;;8.13;4.15;;;;;;;19.01;46.07;96542.06;6158260;23;20245;-80
2023/10/07 10:08:13;;;;;;;6.32;3.50;;;;;;;19.11;45.95;96532.91;6159605;23;20147;-79
2023/10/07 10:10:44;;;;;;;7.72;3.67;;;;;;;18.99;45.89;96538.75;6183569;23;20174;-80
2023/10/07 10:13:29;;;;;;;6.75;3.90;;;;;;;18.80;45.39;96532.16;6159568;23;20208;-80
2023/10/07 10:16:00;;;;;;;5.28;3.20;;;;;;;19.00;45.13;96535.16;6183718;23;20508;-79
2023/10/07 10:18:38;;;;;;;6.65;3.75;;;;;;;18.77;45.69;96529.88;6159800;23;20166;-79
2023/10/07 10:21:05;;;;;;;7.28;4.13;;;;;;;18.94;44.70;96532.22;6206735;23;20356;-80
2023/10/07 10:23:34;;;;;;;7.07;3.85;;;;;;;19.14;45.16;96521.19;6158142;23;20603;-79
2023/10/07 10:26:13;;;;;;;5.75;3.42;;;;;;;18.45;45.24;96520.31;6184908;23;20228;-78
2023/10/07 10:28:43;;;;;;;6.28;3.20;;;;;;;18.77;45.14;96517.53;6206343;23;20210;-79
2023/10/07 10:31:21;;;;;;;6.55;3.35;;;;;;;18.83;44.67;96522.09;6183919;23;20154;-80
2023/10/07 10:33:49;;;;;;;5.35;3.40;;;;;;;18.49;45.04;96529.53;6158306;23;20241;-79
2023/10/07 10:36:18;;;;;;;4.75;3.30;;;;;;;18.78;44.23;96523.63;6157538;23;20249;-78
2023/10/07 10:38:45;;;;;;;6.78;3.58;;;;;;;18.75;44.50;96521.34;6183542;23;20171;-79
2023/10/07 10:41:10;;;;;;;6.40;3.33;;;;;;;19.04;44.07;96520.63;6184739;23;20158;-79
2023/10/07 10:43:36;;;;;;;5.55;3.08;;;;;;;19.04;44.21;96521.44;6157842;23;20441;-79
2023/10/07 10:46:05;;;;;;;7.00;3.40;;;;;;;19.00;44.21;96520.19;6158329;23;20512;-80
2023/10/07 10:48:31;;;;;;;6.55;3.13;;;;;;;19.06;43.90;96527.34;6158199;23;20189;-80
2023/10/07 10:50:57;;;;;;;4.65;2.67;;;;;;;18.94;44.18;96529.59;6183494;23;20511;-79
2023/10/07 10:53:23;;;;;;;5.18;3.03;;;;;;;19.19;43.94;96519.69;6182203;23;20166;-79
2023/10/07 10:55:48;;;;;;;5.35;3.00;;;;;;;19.39;43.24;96509.47;6182649;23;20190;-79
2023/10/07 10:58:16;;;;;;;6.28;3.30;;;;;;;19.59;42.86;96506.34;6158187;23;20190;-79
2023/10/07 11:00:50;;;;;;;5.53;2.92;;;;;;;19.60;42.89;96510.59;6183146;23;20166;-79
2023/10/07 11:03:20;;;;;;;5.85;3.53;;;;;;;19.44;42.32;96507.13;6209632;23;20139;-79
2023/10/07 11:05:46;;;;;;;5.32;2.90;;;;;;;19.64;43.10;96520.63;6182921;23;20238;-79
2023/10/07 11:08:12;;;;;;;4.32;3.03;;;;;;;19.78;42.81;96519.78;6183740;23;20240;-79
2023/10/07 11:10:37;;;;;;;5.20;3.10;;;;;;;19.50;44.02;96506.38;6183804;23;20169;-79
2023/10/07 11:13:08;;;;;;;5.75;3.10;;;;;;;19.58;43.30;96499.44;6157672;23;20241;-79
2023/10/07 11:15:33;;;;;;;5.22;3.42;;;;;;;19.67;43.29;96501.81;6182967;23;20245;-80
2023/10/07 11:18:21;;;;;;;6.07;3.00;;;;;;;19.73;43.45;96506.34;6184061;23;20178;-80
2023/10/07 11:20:45;;;;;;;5.85;3.00;;;;;;;19.46;43.70;96497.22;6204015;23;20249;-80
2023/10/07 11:23:15;;;;;;;5.18;3.13;;;;;;;19.64;43.47;96504.81;6182154;23;20174;-79
2023/10/07 11:25:41;;;;;;;5.03;2.92;;;;;;;19.61;43.75;96504.34;6157820;23;20178;-79
2023/10/07 11:28:09;;;;;;;5.47;3.00;;;;;;;19.57;44.62;96501.25;6158942;23;20505;-80
2023/10/07 11:30:48;;;;;;;5.38;3.45;;;;;;;19.60;43.96;96506.16;6208451;23;20158;-79
2023/10/07 11:33:16;;;;;;;5.15;3.00;;;;;;;19.69;44.29;96498.97;6182866;23;20154;-79
2023/10/07 11:35:58;;;;;;;5.53;3.28;;;;;;;19.78;44.81;96509.25;6183497;23;20174;-80
2023/10/07 11:38:25;;;;;;;8.25;3.33;;;;;;;19.70;44.07;96503.25;6208337;23;20625;-79
2023/10/07 11:40:50;;;;;;;5.43;3.15;;;;;;;20.02;43.72;96502.06;6182751;23;20182;-79
2023/10/07 11:43:16;;;;;;;4.60;2.97;;;;;;;20.14;43.50;96489.22;6182951;23;20174;-79
2023/10/07 11:45:43;;;;;;;5.75;4.05;;;;;;;20.14;43.38;96497.13;6157667;23;20182;-79
2023/10/07 11:48:09;;;;;;;6.75;4.18;;;;;;;20.22;43.42;96489.13;6157918;23;20185;-79
2023/10/07 11:50:35;;;;;;;5.25;4.63;;;;;;;20.12;43.45;96484.16;6182322;23;20162;-79
2023/10/07 11:53:01;;;;;;;6.45;4.15;;;;;;;19.77;44.51;96481.25;6182016;23;20528;-79
2023/10/07 11:55:27;;;;;;;6.03;3.28;;;;;;;19.74;44.63;96486.09;6207902;23;20181;-79
2023/10/07 11:57:52;;;;;;;8.02;2.85;;;;;;;19.77;44.28;96478.63;6158095;23;20190;-79
2023/10/07 12:00:27;;;;;;;5.78;3.92;;;;;;;19.88;44.11;96466.81;6158422;23;20446;-79
2023/10/07 12:02:52;;;;;;;5.25;2.63;;;;;;;19.41;44.75;96472.41;6182341;23;20142;-79
2023/10/07 12:05:18;;;;;;;6.22;3.10;;;;;;;19.75;44.56;96477.19;6182751;23;20614;-79
2023/10/07 12:07:47;;;;;;;5.18;2.83;;;;;;;20.12;43.64;96481.50;6158094;23;20215;-79
2023/10/07 12:10:15;;;;;;;4.38;2.83;;;;;;;20.08;42.63;96477.63;6183678;23;20154;-79
2023/10/07 12:12:42;;;;;;;6.03;3.03;;;;;;;20.07;43.76;96476.81;6182570;23;20222;-79
2023/10/07 12:15:09;;;;;;;4.60;3.17;;;;;;;20.05;43.84;96489.34;6207190;23;20501;-79
2023/10/07 12:17:35;;;;;;;4.40;2.70;;;;;;;20.26;43.95;96480.69;6207335;23;20175;-79
2023/10/07 12:20:01;;;;;;;4.85;2.80;;;;;;;20.52;42.80;96482.00;6157707;23;20212;-80
2023/10/07 12:22:26;;;;;;;4.28;2.75;;;;;;;19.91;43.05;96486.72;6157305;23;20161;-79
2023/10/07 12:24:52;;;;;;;5.18;3.22;;;;;;;20.26;42.87;96487.78;6156459;23;20487;-80
2023/10/07 12:27:17;;;;;;;4.88;3.20;;;;;;;20.18;43.19;96487.88;6158056;23;20186;-78
2023/10/07 12:29:44;;;;;;;5.50;3.10;;;;;;;20.46;42.82;96490.66;6182314;23;20180;-79